sensor_id;sensor_type;location;lat;lon;timestamp;P1;durP1;ratioP1;P2;durP2;ratioP2
55417;SDS011;41287;47.554;7.844;2022-12-29T00:01:19;9.10;;;3.60;;
55417;SDS011;41287;47.554;7.844;2022-12-29T00:03:45;7.18;;;3.55;;
55417;SDS011;41287;47.554;7.844;2022-12-29T00:06:11;8.40;;;2.97;;
55417;SDS011;41287;47.554;7.844;2022-12-29T00:08:36;11.65;;;4.00;;
55417;SDS011;41287;47.554;7.844;2022-12-29T00:11:06;6.35;;;2.95;;
55417;SDS011;41287;47.554;7.844;2022-12-29T00:13:32;8.50;;;3.42;;
55417;SDS011;41287;47.554;7.844;2022-12-29T00:16:16;8.57;;;3.33;;
55417;SDS011;41287;47.554;7.844;2022-12-29T00:18:41;8.70;;;3.05;;
55417;SDS011;41287;47.554;7.844;2022-12-29T00:21:07;10.30;;;3.20;;
55417;SDS011;41287;47.554;7.844;2022-12-29T00:23:55;8.77;;;3.67;;
55417;SDS011;41287;47.554;7.844;2022-12-29T00:29:23;9.10;;;3.08;;
55417;SDS011;41287;47.554;7.844;2022-12-29T00:32:08;9.85;;;3.35;;
55417;SDS011;41287;47.554;7.844;2022-12-29T00:34:53;7.47;;;3.03;;
55417;SDS011;41287;47.554;7.844;2022-12-29T00:37:43;5.93;;;2.70;;
55417;SDS011;41287;47.554;7.844;2022-12-29T00:40:31;8.73;;;2.92;;
55417;SDS011;41287;47.554;7.844;2022-12-29T00:43:15;8.77;;;3.40;;
55417;SDS011;41287;47.554;7.844;2022-12-29T00:45:59;9.57;;;3.53;;
55417;SDS011;41287;47.554;7.844;2022-12-29T00:48:24;7.82;;;3.10;;
55417;SDS011;41287;47.554;7.844;2022-12-29T00:51:08;7.10;;;2.58;;
55417;SDS011;41287;47.554;7.844;2022-12-29T00:53:33;6.97;;;2.88;;
55417;SDS011;41287;47.554;7.844;2022-12-29T00:55:59;8.23;;;3.42;;
55417;SDS011;41287;47.554;7.844;2022-12-29T00:58:26;7.70;;;3.00;;
55417;SDS011;41287;47.554;7.844;2022-12-29T01:00:52;8.25;;;3.10;;
55417;SDS011;41287;47.554;7.844;2022-12-29T01:03:25;8.05;;;3.53;;
55417;SDS011;41287;47.554;7.844;2022-12-29T01:05:50;7.82;;;3.05;;
55417;SDS011;41287;47.554;7.844;2022-12-29T01:08:15;7.30;;;3.10;;
55417;SDS011;41287;47.554;7.844;2022-12-29T01:10:40;9.20;;;3.55;;
55417;SDS011;41287;47.554;7.844;2022-12-29T01:13:06;9.63;;;3.22;;
55417;SDS011;41287;47.554;7.844;2022-12-29T01:15:31;7.43;;;3.80;;
55417;SDS011;41287;47.554;7.844;2022-12-29T01:17:56;9.40;;;3.60;;
55417;SDS011;41287;47.554;7.844;2022-12-29T01:20:22;6.78;;;2.97;;
55417;SDS011;41287;47.554;7.844;2022-12-29T01:22:47;9.05;;;3.47;;
55417;SDS011;41287;47.554;7.844;2022-12-29T01:25:12;8.18;;;3.17;;
55417;SDS011;41287;47.554;7.844;2022-12-29T01:27:37;8.05;;;3.25;;
55417;SDS011;41287;47.554;7.844;2022-12-29T01:30:03;5.95;;;2.47;;
55417;SDS011;41287;47.554;7.844;2022-12-29T01:32:29;7.32;;;3.05;;
55417;SDS011;41287;47.554;7.844;2022-12-29T01:34:54;6.82;;;2.88;;
55417;SDS011;41287;47.554;7.844;2022-12-29T01:37:19;7.55;;;2.50;;
55417;SDS011;41287;47.554;7.844;2022-12-29T01:39:45;6.75;;;2.97;;
55417;SDS011;41287;47.554;7.844;2022-12-29T01:42:14;7.20;;;3.10;;
55417;SDS011;41287;47.554;7.844;2022-12-29T01:44:55;7.35;;;2.75;;
55417;SDS011;41287;47.554;7.844;2022-12-29T01:49:54;7.70;;;3.33;;
55417;SDS011;41287;47.554;7.844;2022-12-29T01:52:22;7.45;;;2.60;;
55417;SDS011;41287;47.554;7.844;2022-12-29T01:54:50;7.22;;;2.50;;
55417;SDS011;41287;47.554;7.844;2022-12-29T01:57:23;7.43;;;3.10;;
55417;SDS011;41287;47.554;7.844;2022-12-29T02:00:03;6.88;;;2.67;;
55417;SDS011;41287;47.554;7.844;2022-12-29T02:02:32;8.73;;;3.10;;
55417;SDS011;41287;47.554;7.844;2022-12-29T02:04:58;4.60;;;2.13;;
55417;SDS011;41287;47.554;7.844;2022-12-29T02:07:27;8.80;;;3.15;;
55417;SDS011;41287;47.554;7.844;2022-12-29T02:09:59;5.25;;;2.53;;
55417;SDS011;41287;47.554;7.844;2022-12-29T02:12:26;5.68;;;2.22;;
55417;SDS011;41287;47.554;7.844;2022-12-29T02:14:54;8.77;;;3.22;;
55417;SDS011;41287;47.554;7.844;2022-12-29T02:32:31;6.07;;;2.85;;
55417;SDS011;41287;47.554;7.844;2022-12-29T02:40:37;5.40;;;2.78;;
55417;SDS011;41287;47.554;7.844;2022-12-29T02:43:12;6.30;;;2.40;;
55417;SDS011;41287;47.554;7.844;2022-12-29T02:45:43;5.80;;;2.78;;
55417;SDS011;41287;47.554;7.844;2022-12-29T02:50:59;7.55;;;3.00;;
55417;SDS011;41287;47.554;7.844;2022-12-29T02:53:28;4.80;;;2.65;;
55417;SDS011;41287;47.554;7.844;2022-12-29T02:56:14;6.80;;;2.45;;
55417;SDS011;41287;47.554;7.844;2022-12-29T02:58:39;6.63;;;2.30;;
55417;SDS011;41287;47.554;7.844;2022-12-29T03:04:45;6.85;;;2.58;;
55417;SDS011;41287;47.554;7.844;2022-12-29T03:07:32;4.43;;;2.20;;
55417;SDS011;41287;47.554;7.844;2022-12-29T03:12:47;6.65;;;2.90;;
55417;SDS011;41287;47.554;7.844;2022-12-29T03:15:45;5.95;;;2.55;;
55417;SDS011;41287;47.554;7.844;2022-12-29T03:18:26;5.47;;;2.20;;
55417;SDS011;41287;47.554;7.844;2022-12-29T03:21:00;6.28;;;2.50;;
55417;SDS011;41287;47.554;7.844;2022-12-29T03:23:32;5.40;;;2.30;;
55417;SDS011;41287;47.554;7.844;2022-12-29T03:26:01;5.40;;;2.47;;
55417;SDS011;41287;47.554;7.844;2022-12-29T03:28:35;6.50;;;2.22;;
55417;SDS011;41287;47.554;7.844;2022-12-29T03:31:06;6.15;;;2.60;;
55417;SDS011;41287;47.554;7.844;2022-12-29T03:33:33;5.75;;;2.65;;
55417;SDS011;41287;47.554;7.844;2022-12-29T03:36:03;7.65;;;2.60;;
55417;SDS011;41287;47.554;7.844;2022-12-29T03:41:12;6.57;;;2.30;;
55417;SDS011;41287;47.554;7.844;2022-12-29T03:43:42;6.70;;;2.80;;
55417;SDS011;41287;47.554;7.844;2022-12-29T03:46:07;4.80;;;2.17;;
55417;SDS011;41287;47.554;7.844;2022-12-29T03:48:33;5.22;;;2.13;;
55417;SDS011;41287;47.554;7.844;2022-12-29T03:50:58;4.78;;;2.45;;
55417;SDS011;41287;47.554;7.844;2022-12-29T03:53:24;5.43;;;2.17;;
55417;SDS011;41287;47.554;7.844;2022-12-29T03:55:49;4.50;;;1.88;;
55417;SDS011;41287;47.554;7.844;2022-12-29T03:58:15;6.20;;;2.05;;
55417;SDS011;41287;47.554;7.844;2022-12-29T04:00:40;7.97;;;2.92;;
55417;SDS011;41287;47.554;7.844;2022-12-29T04:03:06;5.25;;;2.28;;
55417;SDS011;41287;47.554;7.844;2022-12-29T04:05:31;3.78;;;2.17;;
55417;SDS011;41287;47.554;7.844;2022-12-29T04:07:56;5.95;;;2.08;;
55417;SDS011;41287;47.554;7.844;2022-12-29T04:10:22;5.05;;;2.42;;
55417;SDS011;41287;47.554;7.844;2022-12-29T04:12:47;5.75;;;2.13;;
55417;SDS011;41287;47.554;7.844;2022-12-29T04:15:12;4.63;;;2.10;;
55417;SDS011;41287;47.554;7.844;2022-12-29T04:17:38;5.20;;;2.45;;
55417;SDS011;41287;47.554;7.844;2022-12-29T04:20:03;5.32;;;2.33;;
55417;SDS011;41287;47.554;7.844;2022-12-29T04:22:47;6.65;;;2.13;;
55417;SDS011;41287;47.554;7.844;2022-12-29T04:25:13;3.53;;;1.67;;
55417;SDS011;41287;47.554;7.844;2022-12-29T04:27:38;4.45;;;2.20;;
55417;SDS011;41287;47.554;7.844;2022-12-29T04:30:04;4.75;;;2.00;;
55417;SDS011;41287;47.554;7.844;2022-12-29T04:32:29;6.18;;;2.53;;
55417;SDS011;41287;47.554;7.844;2022-12-29T04:34:55;4.95;;;1.98;;
55417;SDS011;41287;47.554;7.844;2022-12-29T04:37:20;4.40;;;2.42;;
55417;SDS011;41287;47.554;7.844;2022-12-29T04:39:45;4.50;;;2.15;;
55417;SDS011;41287;47.554;7.844;2022-12-29T04:42:10;5.97;;;2.58;;
55417;SDS011;41287;47.554;7.844;2022-12-29T04:44:36;3.40;;;1.90;;
55417;SDS011;41287;47.554;7.844;2022-12-29T04:47:01;4.03;;;2.10;;
55417;SDS011;41287;47.554;7.844;2022-12-29T04:49:26;6.18;;;2.35;;
55417;SDS011;41287;47.554;7.844;2022-12-29T04:51:52;4.80;;;2.60;;
55417;SDS011;41287;47.554;7.844;2022-12-29T04:54:17;4.32;;;1.90;;
55417;SDS011;41287;47.554;7.844;2022-12-29T04:56:42;6.22;;;2.15;;
55417;SDS011;41287;47.554;7.844;2022-12-29T04:59:07;4.45;;;1.70;;
55417;SDS011;41287;47.554;7.844;2022-12-29T05:01:33;4.28;;;2.05;;
55417;SDS011;41287;47.554;7.844;2022-12-29T05:03:58;3.95;;;1.85;;
55417;SDS011;41287;47.554;7.844;2022-12-29T05:06:23;3.92;;;2.20;;
55417;SDS011;41287;47.554;7.844;2022-12-29T05:08:49;6.47;;;1.90;;
55417;SDS011;41287;47.554;7.844;2022-12-29T05:11:14;4.18;;;2.08;;
55417;SDS011;41287;47.554;7.844;2022-12-29T05:13:39;5.07;;;2.30;;
55417;SDS011;41287;47.554;7.844;2022-12-29T05:16:05;4.38;;;2.05;;
55417;SDS011;41287;47.554;7.844;2022-12-29T05:18:30;4.15;;;1.88;;
55417;SDS011;41287;47.554;7.844;2022-12-29T05:20:56;5.30;;;2.15;;
55417;SDS011;41287;47.554;7.844;2022-12-29T05:23:21;3.95;;;1.92;;
55417;SDS011;41287;47.554;7.844;2022-12-29T05:25:46;4.93;;;2.05;;
55417;SDS011;41287;47.554;7.844;2022-12-29T05:28:12;3.40;;;2.05;;
55417;SDS011;41287;47.554;7.844;2022-12-29T05:30:38;4.15;;;2.13;;
55417;SDS011;41287;47.554;7.844;2022-12-29T05:33:03;14.05;;;2.35;;
55417;SDS011;41287;47.554;7.844;2022-12-29T05:35:31;6.05;;;2.08;;
55417;SDS011;41287;47.554;7.844;2022-12-29T05:37:56;3.92;;;1.52;;
55417;SDS011;41287;47.554;7.844;2022-12-29T05:40:22;4.68;;;1.60;;
55417;SDS011;41287;47.554;7.844;2022-12-29T05:42:47;4.32;;;2.00;;
55417;SDS011;41287;47.554;7.844;2022-12-29T05:45:12;4.88;;;1.52;;
55417;SDS011;41287;47.554;7.844;2022-12-29T05:47:38;2.58;;;1.15;;
55417;SDS011;41287;47.554;7.844;2022-12-29T05:50:03;3.63;;;1.70;;
55417;SDS011;41287;47.554;7.844;2022-12-29T05:52:29;4.22;;;1.70;;
55417;SDS011;41287;47.554;7.844;2022-12-29T05:54:54;3.22;;;1.42;;
55417;SDS011;41287;47.554;7.844;2022-12-29T05:57:19;2.13;;;1.45;;
55417;SDS011;41287;47.554;7.844;2022-12-29T05:59:44;2.85;;;1.40;;
55417;SDS011;41287;47.554;7.844;2022-12-29T06:02:10;3.47;;;1.45;;
55417;SDS011;41287;47.554;7.844;2022-12-29T06:04:35;3.22;;;1.33;;
55417;SDS011;41287;47.554;7.844;2022-12-29T06:07:00;2.50;;;1.48;;
55417;SDS011;41287;47.554;7.844;2022-12-29T06:09:26;2.63;;;1.17;;
55417;SDS011;41287;47.554;7.844;2022-12-29T06:11:51;3.03;;;1.35;;
55417;SDS011;41287;47.554;7.844;2022-12-29T06:14:16;2.70;;;1.67;;
55417;SDS011;41287;47.554;7.844;2022-12-29T06:16:41;4.07;;;1.40;;
55417;SDS011;41287;47.554;7.844;2022-12-29T06:19:07;3.05;;;1.20;;
55417;SDS011;41287;47.554;7.844;2022-12-29T06:21:32;2.58;;;1.30;;
55417;SDS011;41287;47.554;7.844;2022-12-29T06:23:58;3.42;;;1.42;;
55417;SDS011;41287;47.554;7.844;2022-12-29T06:26:23;2.72;;;1.20;;
55417;SDS011;41287;47.554;7.844;2022-12-29T06:28:49;2.65;;;1.13;;
55417;SDS011;41287;47.554;7.844;2022-12-29T06:31:14;4.15;;;1.98;;
55417;SDS011;41287;47.554;7.844;2022-12-29T06:33:39;4.32;;;1.75;;
55417;SDS011;41287;47.554;7.844;2022-12-29T06:36:05;4.03;;;1.60;;
55417;SDS011;41287;47.554;7.844;2022-12-29T06:38:30;3.50;;;1.60;;
55417;SDS011;41287;47.554;7.844;2022-12-29T06:40:56;4.28;;;1.60;;
55417;SDS011;41287;47.554;7.844;2022-12-29T06:43:21;3.33;;;1.50;;
55417;SDS011;41287;47.554;7.844;2022-12-29T06:45:46;5.00;;;1.55;;
55417;SDS011;41287;47.554;7.844;2022-12-29T06:48:12;3.45;;;1.63;;
55417;SDS011;41287;47.554;7.844;2022-12-29T06:50:37;3.67;;;1.50;;
55417;SDS011;41287;47.554;7.844;2022-12-29T06:53:03;4.80;;;1.58;;
55417;SDS011;41287;47.554;7.844;2022-12-29T06:55:28;4.22;;;1.60;;
55417;SDS011;41287;47.554;7.844;2022-12-29T06:57:55;4.90;;;1.83;;
55417;SDS011;41287;47.554;7.844;2022-12-29T07:00:21;4.47;;;1.63;;
55417;SDS011;41287;47.554;7.844;2022-12-29T07:02:46;3.00;;;1.52;;
55417;SDS011;41287;47.554;7.844;2022-12-29T07:05:11;2.50;;;1.63;;
55417;SDS011;41287;47.554;7.844;2022-12-29T07:07:38;2.83;;;1.23;;
55417;SDS011;41287;47.554;7.844;2022-12-29T07:10:04;5.50;;;1.88;;
55417;SDS011;41287;47.554;7.844;2022-12-29T07:12:29;5.10;;;1.52;;
55417;SDS011;41287;47.554;7.844;2022-12-29T07:14:55;3.45;;;1.67;;
55417;SDS011;41287;47.554;7.844;2022-12-29T07:17:20;2.90;;;1.48;;
55417;SDS011;41287;47.554;7.844;2022-12-29T07:19:45;4.25;;;1.70;;
55417;SDS011;41287;47.554;7.844;2022-12-29T07:22:11;4.80;;;1.60;;
55417;SDS011;41287;47.554;7.844;2022-12-29T07:24:36;2.67;;;1.23;;
55417;SDS011;41287;47.554;7.844;2022-12-29T07:27:01;2.90;;;1.35;;
55417;SDS011;41287;47.554;7.844;2022-12-29T07:29:26;4.50;;;1.75;;
55417;SDS011;41287;47.554;7.844;2022-12-29T07:31:52;3.65;;;1.52;;
55417;SDS011;41287;47.554;7.844;2022-12-29T07:34:17;3.70;;;1.45;;
55417;SDS011;41287;47.554;7.844;2022-12-29T07:36:43;4.50;;;1.80;;
55417;SDS011;41287;47.554;7.844;2022-12-29T07:39:08;2.55;;;1.30;;
55417;SDS011;41287;47.554;7.844;2022-12-29T07:41:33;3.33;;;1.40;;
55417;SDS011;41287;47.554;7.844;2022-12-29T07:43:59;3.78;;;1.60;;
55417;SDS011;41287;47.554;7.844;2022-12-29T07:46:25;4.07;;;1.50;;
55417;SDS011;41287;47.554;7.844;2022-12-29T07:48:50;5.97;;;1.85;;
55417;SDS011;41287;47.554;7.844;2022-12-29T07:51:15;3.85;;;1.80;;
55417;SDS011;41287;47.554;7.844;2022-12-29T07:53:41;3.17;;;1.55;;
55417;SDS011;41287;47.554;7.844;2022-12-29T07:56:06;4.10;;;1.65;;
55417;SDS011;41287;47.554;7.844;2022-12-29T07:58:31;2.75;;;1.23;;
55417;SDS011;41287;47.554;7.844;2022-12-29T08:00:57;4.28;;;1.55;;
55417;SDS011;41287;47.554;7.844;2022-12-29T08:03:23;2.17;;;1.13;;
55417;SDS011;41287;47.554;7.844;2022-12-29T08:05:49;2.83;;;1.20;;
55417;SDS011;41287;47.554;7.844;2022-12-29T08:08:15;1.73;;;1.00;;
55417;SDS011;41287;47.554;7.844;2022-12-29T08:10:40;3.95;;;1.23;;
55417;SDS011;41287;47.554;7.844;2022-12-29T08:13:05;2.30;;;1.02;;
55417;SDS011;41287;47.554;7.844;2022-12-29T08:15:31;1.85;;;1.13;;
55417;SDS011;41287;47.554;7.844;2022-12-29T08:17:56;1.70;;;0.80;;
55417;SDS011;41287;47.554;7.844;2022-12-29T08:20:21;2.47;;;1.05;;
55417;SDS011;41287;47.554;7.844;2022-12-29T08:22:47;3.17;;;1.20;;
55417;SDS011;41287;47.554;7.844;2022-12-29T08:25:12;3.67;;;1.00;;
55417;SDS011;41287;47.554;7.844;2022-12-29T08:27:37;3.40;;;1.13;;
55417;SDS011;41287;47.554;7.844;2022-12-29T08:30:03;2.17;;;0.80;;
55417;SDS011;41287;47.554;7.844;2022-12-29T08:32:28;2.50;;;0.90;;
55417;SDS011;41287;47.554;7.844;2022-12-29T08:34:54;1.58;;;0.82;;
55417;SDS011;41287;47.554;7.844;2022-12-29T08:37:20;2.08;;;1.15;;
55417;SDS011;41287;47.554;7.844;2022-12-29T08:39:45;2.40;;;1.00;;
55417;SDS011;41287;47.554;7.844;2022-12-29T08:42:11;2.95;;;1.00;;
55417;SDS011;41287;47.554;7.844;2022-12-29T08:44:36;3.38;;;1.02;;
55417;SDS011;41287;47.554;7.844;2022-12-29T08:47:01;2.25;;;1.15;;
55417;SDS011;41287;47.554;7.844;2022-12-29T08:49:27;3.40;;;1.00;;
55417;SDS011;41287;47.554;7.844;2022-12-29T08:51:52;3.70;;;1.20;;
55417;SDS011;41287;47.554;7.844;2022-12-29T08:54:17;2.40;;;1.00;;
55417;SDS011;41287;47.554;7.844;2022-12-29T08:56:42;2.33;;;1.00;;
55417;SDS011;41287;47.554;7.844;2022-12-29T08:59:08;3.78;;;1.20;;
55417;SDS011;41287;47.554;7.844;2022-12-29T09:01:33;3.10;;;1.13;;
55417;SDS011;41287;47.554;7.844;2022-12-29T09:04:01;1.85;;;1.02;;
55417;SDS011;41287;47.554;7.844;2022-12-29T09:06:26;2.95;;;1.02;;
55417;SDS011;41287;47.554;7.844;2022-12-29T09:08:53;2.50;;;1.10;;
55417;SDS011;41287;47.554;7.844;2022-12-29T09:11:21;1.67;;;0.80;;
55417;SDS011;41287;47.554;7.844;2022-12-29T09:13:48;2.53;;;1.00;;
55417;SDS011;41287;47.554;7.844;2022-12-29T09:16:14;1.77;;;0.70;;
55417;SDS011;41287;47.554;7.844;2022-12-29T09:18:41;3.22;;;0.77;;
55417;SDS011;41287;47.554;7.844;2022-12-29T09:21:07;2.60;;;0.90;;
55417;SDS011;41287;47.554;7.844;2022-12-29T09:23:33;1.70;;;0.90;;
55417;SDS011;41287;47.554;7.844;2022-12-29T09:25:59;8.65;;;1.13;;
55417;SDS011;41287;47.554;7.844;2022-12-29T09:28:24;1.95;;;0.82;;
55417;SDS011;41287;47.554;7.844;2022-12-29T09:30:50;2.22;;;1.02;;
55417;SDS011;41287;47.554;7.844;2022-12-29T09:33:16;1.88;;;0.90;;
55417;SDS011;41287;47.554;7.844;2022-12-29T09:35:42;1.60;;;0.98;;
55417;SDS011;41287;47.554;7.844;2022-12-29T09:38:08;2.00;;;1.00;;
55417;SDS011;41287;47.554;7.844;2022-12-29T09:40:34;3.17;;;1.10;;
55417;SDS011;41287;47.554;7.844;2022-12-29T09:46:29;2.42;;;1.00;;
55417;SDS011;41287;47.554;7.844;2022-12-29T09:49:14;4.80;;;1.15;;
55417;SDS011;41287;47.554;7.844;2022-12-29T09:51:49;2.85;;;1.13;;
55417;SDS011;41287;47.554;7.844;2022-12-29T09:57:00;3.00;;;0.90;;
55417;SDS011;41287;47.554;7.844;2022-12-29T09:59:27;2.92;;;1.00;;
55417;SDS011;41287;47.554;7.844;2022-12-29T10:04:57;3.47;;;1.85;;
55417;SDS011;41287;47.554;7.844;2022-12-29T10:08:08;2.20;;;1.20;;
55417;SDS011;41287;47.554;7.844;2022-12-29T10:10:20;3.30;;;1.00;;
55417;SDS011;41287;47.554;7.844;2022-12-29T10:18:12;2.80;;;1.42;;
55417;SDS011;41287;47.554;7.844;2022-12-29T10:20:54;2.65;;;1.40;;
55417;SDS011;41287;47.554;7.844;2022-12-29T10:23:30;3.33;;;1.15;;
55417;SDS011;41287;47.554;7.844;2022-12-29T10:25:59;3.47;;;1.35;;
55417;SDS011;41287;47.554;7.844;2022-12-29T10:28:33;2.65;;;1.00;;
55417;SDS011;41287;47.554;7.844;2022-12-29T10:31:16;3.28;;;1.55;;
55417;SDS011;41287;47.554;7.844;2022-12-29T10:33:46;2.75;;;1.23;;
55417;SDS011;41287;47.554;7.844;2022-12-29T10:36:19;2.55;;;1.00;;
55417;SDS011;41287;47.554;7.844;2022-12-29T10:39:04;4.53;;;1.52;;
55417;SDS011;41287;47.554;7.844;2022-12-29T10:41:49;2.00;;;1.00;;
55417;SDS011;41287;47.554;7.844;2022-12-29T10:44:19;2.72;;;1.13;;
55417;SDS011;41287;47.554;7.844;2022-12-29T10:46:52;3.17;;;1.20;;
55417;SDS011;41287;47.554;7.844;2022-12-29T10:49:22;2.70;;;1.50;;
55417;SDS011;41287;47.554;7.844;2022-12-29T10:51:51;4.07;;;1.23;;
55417;SDS011;41287;47.554;7.844;2022-12-29T10:54:23;2.63;;;1.42;;
55417;SDS011;41287;47.554;7.844;2022-12-29T10:57:53;3.13;;;1.20;;
55417;SDS011;41287;47.554;7.844;2022-12-29T10:59:57;3.65;;;1.48;;
55417;SDS011;41287;47.554;7.844;2022-12-29T11:05:33;3.00;;;1.02;;
55417;SDS011;41287;47.554;7.844;2022-12-29T11:08:03;2.35;;;1.10;;
55417;SDS011;41287;47.554;7.844;2022-12-29T11:13:17;1.52;;;0.80;;
55417;SDS011;41287;47.554;7.844;2022-12-29T11:15:49;3.30;;;1.23;;
55417;SDS011;41287;47.554;7.844;2022-12-29T11:18:20;2.75;;;1.13;;
55417;SDS011;41287;47.554;7.844;2022-12-29T11:20:48;3.47;;;1.30;;
55417;SDS011;41287;47.554;7.844;2022-12-29T11:28:37;2.30;;;1.38;;
55417;SDS011;41287;47.554;7.844;2022-12-29T11:31:05;3.05;;;1.02;;
55417;SDS011;41287;47.554;7.844;2022-12-29T11:33:32;1.98;;;1.00;;
55417;SDS011;41287;47.554;7.844;2022-12-29T11:36:01;2.88;;;1.20;;
55417;SDS011;41287;47.554;7.844;2022-12-29T11:38:34;2.65;;;1.15;;
55417;SDS011;41287;47.554;7.844;2022-12-29T11:41:02;3.17;;;1.23;;
55417;SDS011;41287;47.554;7.844;2022-12-29T11:43:33;3.45;;;1.38;;
55417;SDS011;41287;47.554;7.844;2022-12-29T11:48:29;4.10;;;1.40;;
55417;SDS011;41287;47.554;7.844;2022-12-29T11:51:00;3.30;;;1.27;;
55417;SDS011;41287;47.554;7.844;2022-12-29T11:53:26;3.92;;;1.50;;
55417;SDS011;41287;47.554;7.844;2022-12-29T11:56:01;3.40;;;1.10;;
55417;SDS011;41287;47.554;7.844;2022-12-29T11:58:33;2.13;;;1.25;;
55417;SDS011;41287;47.554;7.844;2022-12-29T12:01:15;2.83;;;1.00;;
55417;SDS011;41287;47.554;7.844;2022-12-29T12:03:47;3.63;;;1.50;;
55417;SDS011;41287;47.554;7.844;2022-12-29T12:06:21;2.35;;;1.17;;
55417;SDS011;41287;47.554;7.844;2022-12-29T12:08:55;1.92;;;0.80;;
55417;SDS011;41287;47.554;7.844;2022-12-29T12:11:29;3.08;;;1.17;;
55417;SDS011;41287;47.554;7.844;2022-12-29T12:16:39;3.53;;;1.27;;
55417;SDS011;41287;47.554;7.844;2022-12-29T12:19:12;3.03;;;1.00;;
55417;SDS011;41287;47.554;7.844;2022-12-29T12:21:46;3.08;;;1.05;;
55417;SDS011;41287;47.554;7.844;2022-12-29T12:29:13;2.88;;;1.10;;
55417;SDS011;41287;47.554;7.844;2022-12-29T12:32:19;2.50;;;1.38;;
55417;SDS011;41287;47.554;7.844;2022-12-29T12:35:11;1.57;;;1.07;;
55417;SDS011;41287;47.554;7.844;2022-12-29T12:40:31;2.33;;;0.85;;
55417;SDS011;41287;47.554;7.844;2022-12-29T12:46:07;1.92;;;1.10;;
55417;SDS011;41287;47.554;7.844;2022-12-29T13:00:02;2.95;;;1.30;;
55417;SDS011;41287;47.554;7.844;2022-12-29T13:11:46;1.45;;;0.90;;
55417;SDS011;41287;47.554;7.844;2022-12-29T13:14:34;2.75;;;1.10;;
55417;SDS011;41287;47.554;7.844;2022-12-29T13:19:51;2.90;;;1.20;;
55417;SDS011;41287;47.554;7.844;2022-12-29T13:36:37;3.22;;;1.10;;
55417;SDS011;41287;47.554;7.844;2022-12-29T13:41:54;3.58;;;1.45;;
55417;SDS011;41287;47.554;7.844;2022-12-29T13:44:25;5.53;;;1.10;;
55417;SDS011;41287;47.554;7.844;2022-12-29T13:46:55;3.58;;;1.30;;
55417;SDS011;41287;47.554;7.844;2022-12-29T13:49:23;6.57;;;1.80;;
55417;SDS011;41287;47.554;7.844;2022-12-29T13:51:52;4.57;;;1.92;;
55417;SDS011;41287;47.554;7.844;2022-12-29T13:57:20;4.50;;;1.65;;
55417;SDS011;41287;47.554;7.844;2022-12-29T14:00:02;3.33;;;1.40;;
55417;SDS011;41287;47.554;7.844;2022-12-29T14:08:00;3.40;;;1.30;;
55417;SDS011;41287;47.554;7.844;2022-12-29T14:10:37;4.05;;;1.50;;
55417;SDS011;41287;47.554;7.844;2022-12-29T14:13:16;5.50;;;1.60;;
55417;SDS011;41287;47.554;7.844;2022-12-29T14:15:45;3.08;;;1.23;;
55417;SDS011;41287;47.554;7.844;2022-12-29T14:18:17;3.15;;;1.70;;
55417;SDS011;41287;47.554;7.844;2022-12-29T14:20:48;3.13;;;1.40;;
55417;SDS011;41287;47.554;7.844;2022-12-29T14:23:25;4.53;;;1.48;;
55417;SDS011;41287;47.554;7.844;2022-12-29T14:26:09;3.05;;;1.33;;
55417;SDS011;41287;47.554;7.844;2022-12-29T14:33:38;4.00;;;1.35;;
55417;SDS011;41287;47.554;7.844;2022-12-29T14:36:20;4.40;;;1.40;;
55417;SDS011;41287;47.554;7.844;2022-12-29T14:38:59;4.90;;;1.40;;
55417;SDS011;41287;47.554;7.844;2022-12-29T14:41:35;4.90;;;1.88;;
55417;SDS011;41287;47.554;7.844;2022-12-29T14:46:43;3.23;;;1.47;;
55417;SDS011;41287;47.554;7.844;2022-12-29T14:49:31;3.90;;;1.30;;
55417;SDS011;41287;47.554;7.844;2022-12-29T14:52:17;4.00;;;1.48;;
55417;SDS011;41287;47.554;7.844;2022-12-29T14:54:50;3.88;;;1.63;;
55417;SDS011;41287;47.554;7.844;2022-12-29T14:57:21;3.67;;;1.40;;
55417;SDS011;41287;47.554;7.844;2022-12-29T14:59:53;5.38;;;1.52;;
55417;SDS011;41287;47.554;7.844;2022-12-29T15:02:23;3.95;;;1.50;;
55417;SDS011;41287;47.554;7.844;2022-12-29T15:04:51;3.78;;;1.52;;
55417;SDS011;41287;47.554;7.844;2022-12-29T15:07:23;2.90;;;1.38;;
55417;SDS011;41287;47.554;7.844;2022-12-29T15:09:53;5.53;;;1.83;;
55417;SDS011;41287;47.554;7.844;2022-12-29T15:14:57;4.60;;;1.48;;
55417;SDS011;41287;47.554;7.844;2022-12-29T15:17:27;2.50;;;1.50;;
55417;SDS011;41287;47.554;7.844;2022-12-29T15:19:55;3.58;;;1.30;;
55417;SDS011;41287;47.554;7.844;2022-12-29T15:22:22;2.38;;;1.20;;
55417;SDS011;41287;47.554;7.844;2022-12-29T15:24:49;3.10;;;1.42;;
55417;SDS011;41287;47.554;7.844;2022-12-29T15:27:19;4.70;;;1.50;;
55417;SDS011;41287;47.554;7.844;2022-12-29T15:29:56;4.03;;;1.60;;
55417;SDS011;41287;47.554;7.844;2022-12-29T15:32:41;4.13;;;1.27;;
55417;SDS011;41287;47.554;7.844;2022-12-29T15:37:54;4.78;;;1.77;;
55417;SDS011;41287;47.554;7.844;2022-12-29T15:45:36;3.30;;;1.35;;
55417;SDS011;41287;47.554;7.844;2022-12-29T15:48:02;3.67;;;1.70;;
55417;SDS011;41287;47.554;7.844;2022-12-29T15:50:30;4.00;;;1.30;;
55417;SDS011;41287;47.554;7.844;2022-12-29T15:52:57;3.75;;;1.63;;
55417;SDS011;41287;47.554;7.844;2022-12-29T15:57:55;2.92;;;1.48;;
55417;SDS011;41287;47.554;7.844;2022-12-29T16:00:23;5.22;;;1.52;;
55417;SDS011;41287;47.554;7.844;2022-12-29T16:02:59;5.78;;;2.10;;
55417;SDS011;41287;47.554;7.844;2022-12-29T16:05:34;4.40;;;1.65;;
55417;SDS011;41287;47.554;7.844;2022-12-29T16:08:01;3.28;;;1.27;;
55417;SDS011;41287;47.554;7.844;2022-12-29T16:10:30;3.38;;;1.35;;
55417;SDS011;41287;47.554;7.844;2022-12-29T16:13:02;5.07;;;1.70;;
55417;SDS011;41287;47.554;7.844;2022-12-29T16:15:29;3.35;;;1.33;;
55417;SDS011;41287;47.554;7.844;2022-12-29T16:17:55;2.30;;;1.30;;
55417;SDS011;41287;47.554;7.844;2022-12-29T16:20:21;3.28;;;1.20;;
55417;SDS011;41287;47.554;7.844;2022-12-29T16:22:51;3.63;;;1.50;;
55417;SDS011;41287;47.554;7.844;2022-12-29T16:25:30;4.05;;;1.70;;
55417;SDS011;41287;47.554;7.844;2022-12-29T16:27:59;3.97;;;1.48;;
55417;SDS011;41287;47.554;7.844;2022-12-29T16:30:30;3.42;;;1.58;;
55417;SDS011;41287;47.554;7.844;2022-12-29T16:32:58;3.15;;;1.13;;
55417;SDS011;41287;47.554;7.844;2022-12-29T16:35:28;3.20;;;1.30;;
55417;SDS011;41287;47.554;7.844;2022-12-29T16:38:12;3.40;;;1.67;;
55417;SDS011;41287;47.554;7.844;2022-12-29T16:40:56;2.00;;;1.08;;
55417;SDS011;41287;47.554;7.844;2022-12-29T16:43:23;3.40;;;1.73;;
55417;SDS011;41287;47.554;7.844;2022-12-29T16:48:17;2.83;;;1.27;;
55417;SDS011;41287;47.554;7.844;2022-12-29T16:50:44;3.88;;;1.55;;
55417;SDS011;41287;47.554;7.844;2022-12-29T16:53:27;3.72;;;1.13;;
55417;SDS011;41287;47.554;7.844;2022-12-29T16:55:55;2.30;;;1.25;;
55417;SDS011;41287;47.554;7.844;2022-12-29T16:58:27;3.22;;;1.30;;
55417;SDS011;41287;47.554;7.844;2022-12-29T17:00:56;4.15;;;1.63;;
55417;SDS011;41287;47.554;7.844;2022-12-29T17:03:29;3.05;;;1.27;;
55417;SDS011;41287;47.554;7.844;2022-12-29T17:06:00;4.38;;;1.33;;
55417;SDS011;41287;47.554;7.844;2022-12-29T17:08:25;2.97;;;1.40;;
55417;SDS011;41287;47.554;7.844;2022-12-29T17:10:51;3.45;;;1.60;;
55417;SDS011;41287;47.554;7.844;2022-12-29T17:13:37;3.28;;;1.50;;
55417;SDS011;41287;47.554;7.844;2022-12-29T17:16:04;3.78;;;1.70;;
55417;SDS011;41287;47.554;7.844;2022-12-29T17:18:32;4.88;;;1.55;;
55417;SDS011;41287;47.554;7.844;2022-12-29T17:20:58;3.20;;;1.33;;
55417;SDS011;41287;47.554;7.844;2022-12-29T17:23:23;3.78;;;1.65;;
55417;SDS011;41287;47.554;7.844;2022-12-29T17:25:48;3.28;;;1.52;;
55417;SDS011;41287;47.554;7.844;2022-12-29T17:30:47;4.20;;;1.30;;
55417;SDS011;41287;47.554;7.844;2022-12-29T17:33:14;4.05;;;1.55;;
55417;SDS011;41287;47.554;7.844;2022-12-29T17:35:42;2.97;;;1.40;;